createdAt,value
2019-03-20T00:02:09.773Z,1.50
2019-03-20T00:04:49.312Z,1.40
2019-03-20T00:07:13.516Z,1.30
2019-03-20T00:09:44.293Z,1.20
2019-03-20T00:12:14.902Z,1.10
2019-03-20T00:14:45.524Z,1.00
2019-03-20T00:17:16.175Z,1.00
2019-03-20T00:19:46.822Z,1.00
2019-03-20T00:22:17.487Z,1.00
2019-03-20T00:24:48.117Z,1.00
2019-03-20T00:27:18.766Z,0.90
2019-03-20T00:29:49.378Z,0.90
2019-03-20T00:32:20.030Z,0.80
2019-03-20T00:35:00.533Z,0.80
2019-03-20T00:37:23.031Z,0.80
2019-03-20T00:39:53.660Z,0.70
2019-03-20T00:42:24.321Z,0.60
2019-03-20T00:44:55.028Z,0.70
2019-03-20T00:47:25.693Z,0.80
2019-03-20T00:49:58.102Z,1.00
2019-03-20T00:52:28.909Z,1.00
2019-03-20T00:54:59.514Z,1.00
2019-03-20T00:57:30.303Z,0.90
2019-03-20T01:00:00.933Z,0.80
2019-03-20T01:02:31.664Z,0.60
2019-03-20T01:05:12.181Z,0.60
2019-03-20T01:07:35.049Z,0.60
2019-03-20T01:10:07.076Z,0.60
2019-03-20T01:12:38.704Z,0.60
2019-03-20T01:15:09.722Z,0.50
2019-03-20T01:17:40.447Z,0.40
2019-03-20T01:20:12.344Z,0.40
2019-03-20T01:22:43.191Z,0.40
2019-03-20T01:25:14.606Z,0.50
2019-03-20T01:27:45.334Z,0.50
2019-03-20T01:30:33.883Z,0.60
2019-03-20T01:33:07.022Z,0.60
2019-03-20T01:35:38.080Z,0.50
2019-03-20T01:38:09.144Z,0.50
2019-03-20T01:40:41.097Z,0.60
2019-03-20T01:43:11.801Z,0.60
2019-03-20T01:45:43.685Z,0.60
2019-03-20T01:48:14.342Z,0.50
2019-03-20T01:50:45.000Z,0.50
2019-03-20T01:53:15.622Z,0.60
2019-03-20T01:55:46.290Z,0.50
2019-03-20T01:58:17.028Z,0.40
2019-03-20T02:00:47.650Z,0.40
2019-03-20T02:03:18.285Z,0.30
2019-03-20T02:05:49.012Z,0.30
2019-03-20T02:08:19.637Z,0.30
2019-03-20T02:10:50.235Z,0.30
2019-03-20T02:13:20.895Z,0.30
2019-03-20T02:15:51.508Z,0.30
2019-03-20T02:18:22.154Z,0.30
2019-03-20T02:20:52.792Z,0.30
2019-03-20T02:23:23.452Z,0.30
2019-03-20T02:25:54.211Z,0.30
2019-03-20T02:28:24.883Z,0.30
2019-03-20T02:30:55.546Z,0.20
2019-03-20T02:33:26.176Z,0.20
2019-03-20T02:35:56.913Z,0.20
2019-03-20T02:38:27.554Z,0.20
2019-03-20T02:40:58.261Z,0.10
2019-03-20T02:43:28.991Z,0.10
2019-03-20T02:45:59.598Z,0.10
2019-03-20T02:48:30.247Z,0.10
2019-03-20T02:51:01.103Z,0.10
2019-03-20T02:53:31.795Z,0.10
2019-03-20T02:56:02.427Z,0.00
2019-03-20T02:58:33.087Z,0.00
2019-03-20T03:01:03.892Z,0.10
2019-03-20T03:03:34.677Z,0.10
2019-03-20T03:06:07.205Z,0.10
2019-03-20T03:08:38.154Z,0.10
2019-03-20T03:11:08.795Z,0.10
2019-03-20T03:13:40.988Z,0.10
2019-03-20T03:16:11.577Z,0.00
2019-03-20T03:18:44.157Z,0.10
2019-03-20T03:21:14.831Z,0.20
2019-03-20T03:23:45.458Z,0.10
2019-03-20T03:26:16.086Z,0.00
2019-03-20T03:28:46.775Z,0.10
2019-03-20T03:31:17.436Z,0.00
2019-03-20T03:33:48.069Z,-0.10
2019-03-20T03:36:21.433Z,-0.10
2019-03-20T03:38:51.320Z,-0.10
2019-03-20T03:41:22.002Z,-0.20
2019-03-20T03:43:52.962Z,-0.10
2019-03-20T03:46:23.594Z,-0.10
2019-03-20T03:48:54.821Z,-0.10
2019-03-20T03:51:25.475Z,-0.20
2019-03-20T03:53:56.204Z,-0.20
2019-03-20T03:56:26.899Z,-0.10
2019-03-20T03:58:57.556Z,-0.20
2019-03-20T04:01:28.196Z,-0.30
2019-03-20T04:03:58.905Z,-0.30
2019-03-20T04:06:35.614Z,-0.40
2019-03-20T04:09:01.949Z,-0.40
2019-03-20T04:11:33.318Z,-0.50
2019-03-20T04:14:04.007Z,-0.50
2019-03-20T04:16:34.661Z,-0.50
2019-03-20T04:19:05.329Z,-0.50
2019-03-20T04:21:37.139Z,-0.60
2019-03-20T04:24:07.847Z,-0.60
2019-03-20T04:26:38.568Z,-0.60
2019-03-20T04:29:09.340Z,-0.50
2019-03-20T04:31:41.283Z,-0.40
2019-03-20T04:34:13.074Z,-0.30
2019-03-20T04:36:48.052Z,-0.10
2019-03-20T04:39:17.908Z,0.00
2019-03-20T04:41:49.148Z,-0.10
2019-03-20T04:44:19.778Z,-0.10
2019-03-20T04:46:50.845Z,-0.10
2019-03-20T04:49:21.492Z,-0.20
2019-03-20T04:51:52.624Z,-0.20
2019-03-20T04:54:23.350Z,-0.30
2019-03-20T04:56:54.167Z,-0.30
2019-03-20T04:59:25.168Z,-0.40
2019-03-20T05:01:55.867Z,-0.40
2019-03-20T05:04:26.700Z,-0.40
2019-03-20T05:06:59.154Z,-0.40
2019-03-20T05:09:29.736Z,-0.40
2019-03-20T05:12:00.366Z,-0.40
2019-03-20T05:14:31.051Z,-0.40
2019-03-20T05:17:01.714Z,-0.50
2019-03-20T05:19:32.383Z,-0.50
2019-03-20T05:22:03.026Z,-0.50
2019-03-20T05:24:33.804Z,-0.50
2019-03-20T05:27:04.464Z,-0.50
2019-03-20T05:29:35.076Z,-0.40
2019-03-20T05:32:05.935Z,-0.40
2019-03-20T05:34:36.657Z,-0.40
2019-03-20T05:37:10.707Z,-0.40
2019-03-20T05:39:49.378Z,-0.40
2019-03-20T05:42:20.299Z,-0.40
2019-03-20T05:44:52.797Z,-0.30
2019-03-20T05:47:23.457Z,-0.20
2019-03-20T05:49:57.681Z,-0.20
2019-03-20T05:52:31.137Z,-0.10
2019-03-20T05:55:03.505Z,-0.10
2019-03-20T05:57:34.447Z,0.00
2019-03-20T06:00:05.998Z,0.10
2019-03-20T06:02:36.610Z,0.10
2019-03-20T06:05:14.134Z,0.10
2019-03-20T06:07:45.402Z,0.20
2019-03-20T06:10:16.084Z,0.30
2019-03-20T06:12:57.197Z,0.30
2019-03-20T06:15:39.310Z,0.40
2019-03-20T06:18:21.328Z,0.50
2019-03-20T06:21:02.478Z,0.60
2019-03-20T06:23:47.084Z,0.70
2019-03-20T06:26:31.377Z,0.80
2019-03-20T06:29:05.836Z,0.90
2019-03-20T06:31:36.633Z,1.00
2019-03-20T06:34:07.338Z,1.00
2019-03-20T06:36:38.752Z,1.10
2019-03-20T06:39:09.991Z,1.20
2019-03-20T06:41:40.863Z,1.30
2019-03-20T06:44:11.579Z,1.40
2019-03-20T06:46:43.054Z,1.50
2019-03-20T06:49:13.681Z,1.70
2019-03-20T06:51:45.135Z,1.80
2019-03-20T06:54:18.675Z,1.90
2019-03-20T06:56:49.386Z,2.10
2019-03-20T07:00:22.257Z,2.20
2019-03-20T07:02:52.637Z,2.20
2019-03-20T07:06:33.349Z,2.40
2019-03-20T07:09:39.049Z,2.70
2019-03-20T07:12:09.845Z,2.60
2019-03-20T07:14:40.480Z,2.70
2019-03-20T07:17:11.129Z,2.90
2019-03-20T07:19:42.910Z,3.00
2019-03-20T07:22:13.561Z,3.20
2019-03-20T07:24:44.314Z,3.30
2019-03-20T07:27:15.003Z,3.50
2019-03-20T07:29:45.699Z,3.50
2019-03-20T07:32:16.411Z,3.50
2019-03-20T07:34:47.506Z,3.50
2019-03-20T07:37:18.212Z,3.60
2019-03-20T07:39:48.911Z,3.70
2019-03-20T07:42:19.600Z,3.80
2019-03-20T07:44:50.349Z,3.90
2019-03-20T07:47:21.042Z,4.00
2019-03-20T07:49:51.757Z,4.10
2019-03-20T07:52:22.428Z,4.10
2019-03-20T07:54:54.831Z,4.10
2019-03-20T07:57:25.588Z,4.20
2019-03-20T07:59:59.412Z,4.20
2019-03-20T08:02:30.090Z,4.20
2019-03-20T08:05:01.596Z,4.40
2019-03-20T08:07:32.277Z,4.50
2019-03-20T08:10:02.975Z,4.60
2019-03-20T08:12:33.623Z,4.70
2019-03-20T08:15:04.948Z,4.70
2019-03-20T08:17:35.607Z,4.70
2019-03-20T08:20:07.726Z,4.80
2019-03-20T08:22:38.413Z,4.90
2019-03-20T08:25:09.580Z,5.20
2019-03-20T08:27:41.108Z,5.20
2019-03-20T08:30:14.102Z,5.40
2019-03-20T08:32:44.796Z,5.60
2019-03-20T08:35:15.535Z,5.70
2019-03-20T08:37:46.713Z,5.90
2019-03-20T08:40:17.428Z,6.00
2019-03-20T08:42:48.144Z,6.00
2019-03-20T08:45:18.818Z,6.00
2019-03-20T08:47:49.535Z,6.10
2019-03-20T08:50:22.372Z,6.20
2019-03-20T08:52:53.079Z,6.20
2019-03-20T08:55:24.029Z,6.20
2019-03-20T08:57:54.854Z,6.30
2019-03-20T09:00:25.690Z,6.40
2019-03-20T09:02:56.398Z,6.40
2019-03-20T09:05:27.077Z,6.50
2019-03-20T09:07:57.803Z,6.60
2019-03-20T09:10:28.509Z,6.70
2019-03-20T09:12:59.209Z,6.80
2019-03-20T09:15:29.891Z,6.80
2019-03-20T09:18:00.598Z,6.90
2019-03-20T09:20:31.293Z,7.00
2019-03-20T09:23:02.540Z,7.10
2019-03-20T09:25:33.178Z,7.10
2019-03-20T09:28:04.691Z,7.20
2019-03-20T09:30:35.355Z,7.50
2019-03-20T09:33:06.721Z,7.60
2019-03-20T09:35:37.355Z,7.80
2019-03-20T09:38:08.150Z,7.80
2019-03-20T09:40:38.800Z,7.70
2019-03-20T09:43:09.634Z,7.90
2019-03-20T09:45:41.299Z,7.90
2019-03-20T09:48:12.099Z,7.90
2019-03-20T09:50:42.780Z,8.10
2019-03-20T09:53:13.555Z,8.10
2019-03-20T09:55:45.227Z,8.10
2019-03-20T09:58:15.816Z,8.30
2019-03-20T10:00:46.523Z,8.40
2019-03-20T10:03:17.174Z,8.40
2019-03-20T10:05:47.863Z,8.40
2019-03-20T10:08:18.559Z,8.50
2019-03-20T10:10:49.349Z,8.70
2019-03-20T10:13:20.091Z,8.80
2019-03-20T10:15:50.839Z,8.80
2019-03-20T10:18:21.479Z,8.80
2019-03-20T10:20:52.181Z,8.80
2019-03-20T10:23:22.901Z,8.70
2019-03-20T10:25:53.654Z,8.90
2019-03-20T10:28:24.236Z,8.90
2019-03-20T10:30:55.012Z,9.00
2019-03-20T10:33:25.691Z,8.90
2019-03-20T10:35:56.391Z,9.00
2019-03-20T10:38:27.107Z,9.20
2019-03-20T10:40:57.758Z,9.30
2019-03-20T10:43:28.762Z,9.60
2019-03-20T10:45:59.359Z,9.60
2019-03-20T10:48:30.070Z,9.50
2019-03-20T10:51:00.719Z,9.40
2019-03-20T10:53:31.338Z,9.50
2019-03-20T10:56:02.025Z,9.50
2019-03-20T10:58:32.674Z,9.70
2019-03-20T11:01:03.289Z,9.60
2019-03-20T11:03:33.946Z,9.50
2019-03-20T11:06:04.768Z,9.50
2019-03-20T11:08:35.468Z,9.90
2019-03-20T11:11:06.173Z,10.20
2019-03-20T11:13:36.862Z,10.40
2019-03-20T11:16:08.309Z,10.30
2019-03-20T11:18:39.344Z,10.60
2019-03-20T11:21:10.743Z,10.60
2019-03-20T11:23:41.538Z,10.40
2019-03-20T11:26:12.727Z,10.40
2019-03-20T11:28:44.269Z,10.20
2019-03-20T11:31:15.111Z,10.30
2019-03-20T11:33:45.998Z,10.40
2019-03-20T11:36:16.817Z,10.60
2019-03-20T11:38:47.688Z,11.10
2019-03-20T11:41:18.379Z,11.30
2019-03-20T11:43:49.233Z,11.20
2019-03-20T11:46:19.946Z,11.30
2019-03-20T11:48:50.726Z,11.30
2019-03-20T11:51:21.521Z,11.20
2019-03-20T11:53:52.346Z,11.00
2019-03-20T11:56:23.234Z,11.20
2019-03-20T11:58:53.992Z,11.50
2019-03-20T12:01:24.736Z,11.40
2019-03-20T12:03:55.544Z,11.30
2019-03-20T12:06:26.253Z,11.40
2019-03-20T12:08:57.014Z,11.30
2019-03-20T12:11:27.744Z,11.00
2019-03-20T12:13:58.542Z,11.20
2019-03-20T12:16:29.281Z,11.00
2019-03-20T12:19:00.164Z,11.20
2019-03-20T12:21:31.575Z,11.60
2019-03-20T12:24:02.444Z,12.10
2019-03-20T12:26:33.079Z,12.30
2019-03-20T12:29:03.738Z,12.40
2019-03-20T12:31:35.042Z,12.30
2019-03-20T12:34:05.727Z,12.10
2019-03-20T12:36:36.376Z,12.20
2019-03-20T12:39:09.989Z,12.40
2019-03-20T12:41:40.673Z,12.10
2019-03-20T12:44:13.027Z,11.90
2019-03-20T12:46:44.545Z,12.00
2019-03-20T12:49:15.539Z,12.00
2019-03-20T12:51:46.191Z,12.20
2019-03-20T12:54:17.466Z,12.00
2019-03-20T12:56:48.127Z,12.20
2019-03-20T12:59:18.799Z,11.90
2019-03-20T13:01:50.507Z,11.80
2019-03-20T13:04:21.221Z,12.10
2019-03-20T13:06:51.861Z,12.60
2019-03-20T13:09:22.488Z,12.50
2019-03-20T13:11:53.169Z,12.70
2019-03-20T13:14:23.823Z,12.70
2019-03-20T13:16:54.509Z,13.20
2019-03-20T13:21:55.227Z,13.20
2019-03-20T13:24:25.880Z,13.70
2019-03-20T13:26:56.535Z,13.50
2019-03-20T13:29:27.194Z,14.20
2019-03-20T13:31:57.847Z,14.90
2019-03-20T13:34:28.496Z,14.40
2019-03-20T13:36:59.182Z,13.40
2019-03-20T13:39:29.929Z,13.80
2019-03-20T13:44:30.586Z,13.80
2019-03-20T13:47:01.237Z,15.10
2019-03-20T13:49:31.915Z,14.80
2019-03-20T13:52:02.571Z,14.00
2019-03-20T13:54:34.111Z,13.60
2019-03-20T13:57:04.899Z,13.40
2019-03-20T13:59:35.719Z,14.10
2019-03-20T14:02:06.633Z,15.20
2019-03-20T14:04:37.347Z,15.70
2019-03-20T14:07:08.140Z,14.40
2019-03-20T14:09:39.249Z,13.60
2019-03-20T14:12:10.057Z,13.50
2019-03-20T14:14:40.988Z,13.70
2019-03-20T14:17:11.660Z,14.20
2019-03-20T14:19:43.052Z,14.00
2019-03-20T14:22:13.680Z,14.70
2019-03-20T14:24:44.492Z,14.60
2019-03-20T14:27:15.153Z,14.00
2019-03-20T14:29:45.870Z,13.70
2019-03-20T14:32:16.743Z,13.60
2019-03-20T14:34:47.663Z,13.10
2019-03-20T14:37:18.632Z,12.90
2019-03-20T14:39:49.458Z,12.90
2019-03-20T14:42:20.970Z,12.80
2019-03-20T14:44:51.829Z,12.40
2019-03-20T14:47:22.870Z,12.20
2019-03-20T14:49:53.845Z,12.10
2019-03-20T14:52:26.173Z,12.10
2019-03-20T14:54:56.967Z,12.10
2019-03-20T14:57:28.665Z,12.00
2019-03-20T14:59:59.350Z,12.10
2019-03-20T15:02:30.090Z,12.10
2019-03-20T15:05:02.152Z,11.90
2019-03-20T15:07:32.973Z,11.90
2019-03-20T15:10:03.637Z,12.10
2019-03-20T15:12:34.401Z,12.30
2019-03-20T15:15:07.011Z,12.80
2019-03-20T15:17:37.681Z,13.10
2019-03-20T15:20:08.428Z,13.10
2019-03-20T15:22:39.099Z,13.30
2019-03-20T15:25:10.122Z,13.50
2019-03-20T15:27:42.309Z,13.90
2019-03-20T15:30:15.374Z,13.60
2019-03-20T15:32:46.400Z,12.80
2019-03-20T15:35:17.124Z,12.60
2019-03-20T15:37:48.530Z,12.30
2019-03-20T15:40:19.240Z,12.00
2019-03-20T15:42:50.063Z,11.70
2019-03-20T15:45:22.875Z,11.60
2019-03-20T15:47:53.630Z,11.50
2019-03-20T15:50:25.537Z,11.60
2019-03-20T15:52:57.388Z,11.60
2019-03-20T15:55:30.493Z,11.70
2019-03-20T15:58:03.535Z,11.50
2019-03-20T16:00:34.285Z,11.50
2019-03-20T16:03:09.305Z,11.50
2019-03-20T16:05:40.361Z,11.40
2019-03-20T16:08:11.734Z,11.40
2019-03-20T16:10:42.965Z,11.40
2019-03-20T16:13:13.797Z,11.20
2019-03-20T16:15:44.790Z,11.20
2019-03-20T16:18:15.463Z,11.10
2019-03-20T16:20:46.110Z,11.00
2019-03-20T16:23:16.830Z,11.10
2019-03-20T16:25:47.797Z,11.00
2019-03-20T16:28:18.574Z,10.90
2019-03-20T16:30:49.247Z,10.90
2019-03-20T16:33:19.875Z,10.90
2019-03-20T16:35:50.591Z,10.80
2019-03-20T16:38:21.235Z,10.70
2019-03-20T16:40:52.057Z,10.60
2019-03-20T16:43:22.734Z,10.60
2019-03-20T16:45:53.425Z,10.60
2019-03-20T16:48:24.354Z,10.60
2019-03-20T16:50:55.030Z,10.60
2019-03-20T16:53:26.041Z,10.60
2019-03-20T16:55:56.705Z,10.50
2019-03-20T16:58:27.723Z,10.50
2019-03-20T17:00:58.380Z,10.50
2019-03-20T17:03:29.399Z,10.50
2019-03-20T17:06:00.101Z,10.50
2019-03-20T17:08:30.824Z,10.50
2019-03-20T17:11:01.491Z,10.50
2019-03-20T17:13:32.158Z,10.50
2019-03-20T17:16:02.806Z,10.50
2019-03-20T17:18:33.467Z,10.40
2019-03-20T17:21:04.185Z,10.40
2019-03-20T17:23:35.058Z,10.40
2019-03-20T17:26:05.893Z,10.40
2019-03-20T17:28:36.525Z,10.40
2019-03-20T17:31:07.276Z,10.30
2019-03-20T17:33:38.431Z,10.30
2019-03-20T17:36:09.119Z,10.30
2019-03-20T17:38:39.887Z,10.20
2019-03-20T17:41:10.546Z,10.20
2019-03-20T17:43:42.314Z,10.20
2019-03-20T17:46:12.977Z,10.10
2019-03-20T17:48:44.058Z,10.20
2019-03-20T17:51:14.899Z,10.20
2019-03-20T17:53:45.611Z,10.20
2019-03-20T17:56:16.462Z,10.10
2019-03-20T17:58:48.244Z,10.10
2019-03-20T18:01:18.967Z,10.10
2019-03-20T18:03:49.616Z,10.10
2019-03-20T18:06:20.391Z,10.20
2019-03-20T18:08:51.052Z,10.20
2019-03-20T18:11:21.716Z,10.10
2019-03-20T18:13:52.807Z,10.20
2019-03-20T18:16:23.465Z,10.10
2019-03-20T18:18:54.161Z,10.10
2019-03-20T18:21:24.810Z,10.10
2019-03-20T18:23:55.535Z,10.10
2019-03-20T18:26:26.216Z,10.10
2019-03-20T18:28:56.921Z,10.10
2019-03-20T18:31:27.590Z,10.10
2019-03-20T18:33:58.263Z,10.10
2019-03-20T18:36:28.991Z,10.00
2019-03-20T18:38:59.664Z,10.10
2019-03-20T18:41:30.898Z,10.00
2019-03-20T18:44:01.612Z,10.00
2019-03-20T18:46:32.423Z,9.90
2019-03-20T18:49:03.091Z,10.00
2019-03-20T18:51:34.991Z,10.00
2019-03-20T18:54:06.001Z,10.00
2019-03-20T18:56:36.994Z,10.00
2019-03-20T18:59:07.632Z,10.00
2019-03-20T19:01:40.119Z,10.00
2019-03-20T19:04:10.901Z,10.00
2019-03-20T19:06:43.120Z,9.90
2019-03-20T19:09:13.951Z,9.90
2019-03-20T19:11:45.719Z,9.90
2019-03-20T19:14:16.444Z,9.80
2019-03-20T19:16:48.623Z,9.80
2019-03-20T19:19:19.560Z,9.90
2019-03-20T19:21:50.178Z,9.80
2019-03-20T19:24:20.865Z,9.80
2019-03-20T19:26:51.534Z,9.90
2019-03-20T19:29:22.209Z,9.80
2019-03-20T19:31:53.958Z,9.80
2019-03-20T19:34:25.525Z,9.80
2019-03-20T19:36:56.259Z,9.90
2019-03-20T19:39:27.033Z,9.80
2019-03-20T19:41:59.809Z,9.80
2019-03-20T19:44:30.508Z,9.90
2019-03-20T19:47:01.172Z,9.80
2019-03-20T19:49:31.902Z,9.80
2019-03-20T19:52:02.532Z,9.80
2019-03-20T19:54:33.269Z,9.80
2019-03-20T19:57:03.951Z,9.80
2019-03-20T19:59:35.670Z,9.80
2019-03-20T20:02:06.566Z,9.70
2019-03-20T20:04:37.214Z,9.70
2019-03-20T20:07:07.876Z,9.60
2019-03-20T20:09:38.935Z,9.60
2019-03-20T20:12:09.808Z,9.60
2019-03-20T20:14:40.973Z,9.60
2019-03-20T20:17:11.673Z,9.60
2019-03-20T20:19:44.127Z,9.60
2019-03-20T20:22:15.012Z,9.60
2019-03-20T20:24:46.173Z,9.60
2019-03-20T20:27:16.837Z,9.70
2019-03-20T20:29:47.565Z,9.70
2019-03-20T20:32:18.376Z,9.70
2019-03-20T20:34:50.511Z,9.70
2019-03-20T20:37:21.235Z,9.70
2019-03-20T20:39:51.915Z,9.70
2019-03-20T20:42:22.731Z,9.70
2019-03-20T20:44:53.589Z,9.70
2019-03-20T20:47:24.285Z,9.70
2019-03-20T20:49:58.321Z,9.60
2019-03-20T20:52:28.969Z,9.60
2019-03-20T20:54:59.780Z,9.60
2019-03-20T20:57:30.548Z,9.60
2019-03-20T21:00:01.267Z,9.60
2019-03-20T21:02:31.913Z,9.60
2019-03-20T21:05:02.616Z,9.60
2019-03-20T21:07:33.306Z,9.60
2019-03-20T21:10:04.384Z,9.50
2019-03-20T21:12:35.220Z,9.50
2019-03-20T21:15:09.206Z,9.50
2019-03-20T21:18:14.436Z,9.50
2019-03-20T21:20:59.425Z,9.40
2019-03-20T21:24:28.598Z,9.40
2019-03-20T21:28:02.207Z,9.40
2019-03-20T21:31:02.677Z,9.40
2019-03-20T21:34:34.434Z,9.40
2019-03-20T21:38:07.996Z,9.40
2019-03-20T21:41:37.578Z,9.30
2019-03-20T21:45:10.418Z,9.30
2019-03-20T21:47:40.035Z,9.30
2019-03-20T21:51:19.782Z,9.20
2019-03-20T21:54:57.883Z,9.20
2019-03-20T21:58:28.733Z,9.20
2019-03-20T22:02:32.653Z,9.30
2019-03-20T22:05:04.382Z,9.30
2019-03-20T22:07:37.877Z,9.30
2019-03-20T22:11:13.981Z,9.30
2019-03-20T22:14:02.485Z,9.30
2019-03-20T22:17:49.955Z,9.30
2019-03-20T22:20:48.830Z,9.30
2019-03-20T22:24:12.178Z,9.30
2019-03-20T22:27:50.099Z,9.30
2019-03-20T22:30:21.888Z,9.30
2019-03-20T22:33:46.610Z,9.30
2019-03-20T22:36:27.908Z,9.30
2019-03-20T22:39:59.878Z,9.30
2019-03-20T22:43:11.541Z,9.30
2019-03-20T22:46:50.854Z,9.30
2019-03-20T22:50:22.513Z,9.40
2019-03-20T22:53:53.629Z,9.30
2019-03-20T22:57:09.724Z,9.30
2019-03-20T22:59:41.278Z,9.20
2019-03-20T23:02:49.437Z,9.30
2019-03-20T23:05:21.256Z,9.20
2019-03-20T23:07:53.648Z,9.20
2019-03-20T23:10:25.185Z,9.10
2019-03-20T23:12:56.644Z,9.10
2019-03-20T23:15:28.240Z,9.10
2019-03-20T23:17:59.783Z,9.10
2019-03-20T23:20:31.749Z,9.10
2019-03-20T23:23:03.289Z,9.20
2019-03-20T23:25:34.830Z,9.10
2019-03-20T23:28:06.362Z,9.10
2019-03-20T23:30:38.383Z,9.10
2019-03-20T23:33:09.954Z,9.10
2019-03-20T23:35:41.579Z,9.10
2019-03-20T23:38:13.206Z,9.10
2019-03-20T23:40:45.317Z,9.10
2019-03-20T23:43:16.862Z,9.20
2019-03-20T23:45:48.471Z,9.10
2019-03-20T23:48:53.827Z,9.20
2019-03-20T23:51:26.474Z,9.30
2019-03-20T23:53:58.829Z,9.30
2019-03-20T23:56:32.904Z,9.30
2019-03-20T23:59:04.652Z,9.30
